Time,TemperatureF,DewpointF,PressureIn,WindDirection,WindDirectionDegrees,WindSpeedMPH,WindSpeedGustMPH,Humidity,HourlyPrecipIn,Conditions,Clouds,dailyrainin,SoftwareType,DateUTC
2013-08-08 00:06:00,60.6,54.5,29.91,North,0,0.0,-999.0,80,0.00,,,0.00,open2300 v1.10,2013-08-08 07:06:00,
2013-08-08 00:21:00,60.6,54.5,29.91,North,0,0.0,-999.0,80,0.00,,,0.00,open2300 v1.10,2013-08-08 07:21:00,
2013-08-08 00:36:00,60.8,54.7,29.91,North,0,0.0,-999.0,80,0.00,,,0.00,open2300 v1.10,2013-08-08 07:36:00,
2013-08-08 00:51:00,61.0,54.8,29.91,North,0,0.0,-999.0,80,0.00,,,0.00,open2300 v1.10,2013-08-08 07:51:00,
2013-08-08 01:07:00,60.6,54.5,29.91,North,0,0.0,-999.0,80,0.00,,,0.00,open2300 v1.10,2013-08-08 08:07:00,
2013-08-08 01:21:00,60.6,54.8,29.90,North,0,0.0,-999.0,81,0.00,,,0.00,open2300 v1.10,2013-08-08 08:21:00,
2013-08-08 01:36:00,60.8,55.0,29.90,North,0,0.0,-999.0,81,0.00,,,0.00,open2300 v1.10,2013-08-08 08:36:00,
2013-08-08 01:51:00,60.8,55.0,29.90,North,0,0.0,-999.0,81,0.00,,,0.00,open2300 v1.10,2013-08-08 08:51:00,
2013-08-08 02:07:00,60.6,54.8,29.89,North,0,0.0,-999.0,81,0.00,,,0.00,open2300 v1.10,2013-08-08 09:07:00,
2013-08-08 02:21:00,60.6,54.8,29.89,North,0,0.0,-999.0,81,0.00,,,0.00,open2300 v1.10,2013-08-08 09:21:00,
2013-08-08 02:36:00,60.6,54.8,29.89,North,0,0.0,-999.0,81,0.00,,,0.00,open2300 v1.10,2013-08-08 09:36:00,
2013-08-08 02:51:00,60.6,54.8,29.89,North,0,0.0,-999.0,81,0.00,,,0.00,open2300 v1.10,2013-08-08 09:51:00,
2013-08-08 03:07:00,60.6,54.8,29.89,North,0,0.0,-999.0,81,0.00,,,0.00,open2300 v1.10,2013-08-08 10:07:00,
2013-08-08 03:21:00,60.6,54.8,29.88,North,0,0.0,-999.0,81,0.00,,,0.00,open2300 v1.10,2013-08-08 10:21:00,
2013-08-08 03:36:00,60.6,54.8,29.88,North,0,0.0,-999.0,81,0.00,,,0.00,open2300 v1.10,2013-08-08 10:36:00,
2013-08-08 03:51:00,60.4,54.3,29.88,North,0,0.0,-999.0,80,0.00,,,0.00,open2300 v1.10,2013-08-08 10:51:00,
2013-08-08 04:07:00,60.4,54.3,29.87,North,0,0.0,-999.0,80,0.00,,,0.00,open2300 v1.10,2013-08-08 11:07:00,
2013-08-08 04:21:00,60.4,54.3,29.87,North,0,0.0,-999.0,80,0.00,,,0.00,open2300 v1.10,2013-08-08 11:21:00,
2013-08-08 04:36:00,60.4,54.3,29.87,North,0,0.0,-999.0,80,0.00,,,0.00,open2300 v1.10,2013-08-08 11:36:00,
2013-08-08 04:51:00,60.4,54.3,29.87,North,0,0.0,-999.0,80,0.00,,,0.00,open2300 v1.10,2013-08-08 11:51:00,
2013-08-08 05:07:00,60.1,54.0,29.86,North,0,0.0,-999.0,80,0.00,,,0.00,open2300 v1.10,2013-08-08 12:07:00,
2013-08-08 05:21:00,60.3,54.1,29.87,North,0,0.0,-999.0,80,0.00,,,0.00,open2300 v1.10,2013-08-08 12:21:00,
2013-08-08 05:36:00,60.1,54.0,29.87,North,0,0.0,-999.0,80,0.00,,,0.00,open2300 v1.10,2013-08-08 12:36:00,
2013-08-08 05:51:00,60.1,54.3,29.87,North,0,0.0,-999.0,81,0.00,,,0.00,open2300 v1.10,2013-08-08 12:51:00,
2013-08-08 06:07:00,59.9,54.1,29.87,North,0,0.0,-999.0,81,0.00,,,0.00,open2300 v1.10,2013-08-08 13:07:00,
2013-08-08 06:21:00,60.1,54.3,29.88,North,0,0.0,-999.0,81,0.00,,,0.00,open2300 v1.10,2013-08-08 13:21:00,
2013-08-08 06:36:00,60.1,54.6,29.88,North,0,0.0,-999.0,82,0.00,,,0.00,open2300 v1.10,2013-08-08 13:36:00,
2013-08-08 06:51:00,59.9,54.4,29.88,North,0,0.0,-999.0,82,0.00,,,0.00,open2300 v1.10,2013-08-08 13:51:00,
2013-08-08 07:07:00,60.1,54.6,29.88,North,0,0.0,-999.0,82,0.00,,,0.00,open2300 v1.10,2013-08-08 14:07:00,
2013-08-08 07:21:00,59.9,54.4,29.88,North,0,0.0,-999.0,82,0.00,,,0.00,open2300 v1.10,2013-08-08 14:21:00,
2013-08-08 07:36:00,60.1,54.6,29.89,North,0,0.0,-999.0,82,0.00,,,0.00,open2300 v1.10,2013-08-08 14:36:00,
2013-08-08 07:51:00,60.4,55.0,29.89,North,0,0.0,-999.0,82,0.00,,,0.00,open2300 v1.10,2013-08-08 14:51:00,
2013-08-08 08:06:00,60.6,55.2,29.89,North,0,0.0,-999.0,82,0.00,,,0.00,open2300 v1.10,2013-08-08 15:06:00,
2013-08-08 08:21:00,61.0,55.5,29.89,North,0,0.0,-999.0,82,0.00,,,0.00,open2300 v1.10,2013-08-08 15:21:00,
2013-08-08 08:36:00,61.3,55.8,29.89,North,0,0.0,-999.0,82,0.00,,,0.00,open2300 v1.10,2013-08-08 15:36:00,
2013-08-08 08:51:00,61.3,55.8,29.89,North,0,0.0,-999.0,82,0.00,,,0.00,open2300 v1.10,2013-08-08 15:51:00,
2013-08-08 09:06:00,61.3,55.5,29.89,North,0,0.0,-999.0,81,0.00,,,0.00,open2300 v1.10,2013-08-08 16:06:00,
2013-08-08 09:21:00,61.5,55.7,29.89,North,0,0.0,-999.0,81,0.00,,,0.00,open2300 v1.10,2013-08-08 16:21:00,
2013-08-08 09:36:00,61.5,55.7,29.89,North,0,0.0,-999.0,81,0.00,,,0.00,open2300 v1.10,2013-08-08 16:36:00,
2013-08-08 09:51:00,62.2,56.0,29.89,North,0,0.0,-999.0,80,0.00,,,0.00,open2300 v1.10,2013-08-08 16:51:00,
2013-08-08 10:06:00,63.1,56.8,29.89,North,0,0.0,-999.0,80,0.00,,,0.00,open2300 v1.10,2013-08-08 17:06:00,
2013-08-08 10:21:00,63.1,56.5,29.89,North,0,0.0,-999.0,79,0.00,,,0.00,open2300 v1.10,2013-08-08 17:21:00,
2013-08-08 10:36:00,63.7,56.7,29.90,North,0,0.0,-999.0,78,0.00,,,0.00,open2300 v1.10,2013-08-08 17:36:00,
2013-08-08 10:51:00,64.6,57.2,29.90,North,0,0.0,-999.0,77,0.00,,,0.00,open2300 v1.10,2013-08-08 17:51:00,
2013-08-08 11:06:00,64.6,57.2,29.90,North,0,0.0,-999.0,77,0.00,,,0.00,open2300 v1.10,2013-08-08 18:06:00,
2013-08-08 11:21:00,64.8,57.0,29.89,North,0,0.0,-999.0,76,0.00,,,0.00,open2300 v1.10,2013-08-08 18:21:00,
2013-08-08 11:36:00,65.3,57.2,29.89,North,0,0.0,-999.0,75,0.00,,,0.00,open2300 v1.10,2013-08-08 18:36:00,
2013-08-08 11:51:00,64.6,56.5,29.89,North,0,0.0,-999.0,75,0.00,,,0.00,open2300 v1.10,2013-08-08 18:51:00,
2013-08-08 12:06:00,65.5,57.0,29.89,North,0,0.0,-999.0,74,0.00,,,0.00,open2300 v1.10,2013-08-08 19:06:00,
2013-08-08 12:21:00,66.2,56.9,29.89,North,0,0.0,-999.0,72,0.00,,,0.00,open2300 v1.10,2013-08-08 19:21:00,
2013-08-08 12:36:00,66.9,57.2,29.88,North,0,0.0,-999.0,71,0.00,,,0.00,open2300 v1.10,2013-08-08 19:36:00,
2013-08-08 12:51:00,67.1,57.0,29.88,North,0,0.0,-999.0,70,0.00,,,0.00,open2300 v1.10,2013-08-08 19:51:00,
2013-08-08 13:06:00,67.3,56.8,29.88,North,0,0.0,-999.0,69,0.00,,,0.00,open2300 v1.10,2013-08-08 20:06:00,
2013-08-08 13:21:00,66.7,55.8,29.88,North,0,0.0,-999.0,68,0.00,,,0.00,open2300 v1.10,2013-08-08 20:21:00,
2013-08-08 13:36:00,65.8,55.0,29.88,North,0,0.0,-999.0,68,0.00,,,0.00,open2300 v1.10,2013-08-08 20:36:00,
2013-08-08 13:51:00,65.1,54.3,29.88,North,0,0.0,-999.0,68,0.00,,,0.00,open2300 v1.10,2013-08-08 20:51:00,
2013-08-08 14:06:00,65.1,54.3,29.88,North,0,0.0,-999.0,68,0.00,,,0.00,open2300 v1.10,2013-08-08 21:06:00,
2013-08-08 14:21:00,65.1,54.7,29.87,North,0,0.0,-999.0,69,0.00,,,0.00,open2300 v1.10,2013-08-08 21:21:00,
2013-08-08 14:36:00,64.9,54.1,29.87,North,0,0.0,-999.0,68,0.00,,,0.00,open2300 v1.10,2013-08-08 21:36:00,
2013-08-08 14:51:00,65.1,54.3,29.87,North,0,0.0,-999.0,68,0.00,,,0.00,open2300 v1.10,2013-08-08 21:51:00,
2013-08-08 15:06:00,65.1,54.3,29.87,North,0,0.0,-999.0,68,0.00,,,0.00,open2300 v1.10,2013-08-08 22:06:00,
2013-08-08 15:21:00,64.9,54.1,29.87,North,0,0.0,-999.0,68,0.00,,,0.00,open2300 v1.10,2013-08-08 22:21:00,
2013-08-08 15:36:00,64.8,54.0,29.87,North,0,0.0,-999.0,68,0.00,,,0.00,open2300 v1.10,2013-08-08 22:36:00,
2013-08-08 15:51:00,65.1,54.3,29.86,North,0,0.0,-999.0,68,0.00,,,0.00,open2300 v1.10,2013-08-08 22:51:00,
2013-08-08 16:06:00,65.1,54.3,29.86,North,0,0.0,-999.0,68,0.00,,,0.00,open2300 v1.10,2013-08-08 23:06:00,
2013-08-08 16:21:00,65.3,54.5,29.86,North,0,0.0,-999.0,68,0.00,,,0.00,open2300 v1.10,2013-08-08 23:21:00,
2013-08-08 16:36:00,65.7,54.4,29.85,North,0,0.0,-999.0,67,0.00,,,0.00,open2300 v1.10,2013-08-08 23:36:00,
2013-08-08 16:51:00,65.5,54.2,29.85,North,0,0.0,-999.0,67,0.00,,,0.00,open2300 v1.10,2013-08-08 23:51:00,
2013-08-08 17:21:00,65.7,54.4,29.85,North,0,0.0,-999.0,67,0.00,,,0.00,open2300 v1.10,2013-08-09 00:21:00,
2013-08-08 17:36:00,66.0,54.7,29.85,North,0,0.0,-999.0,67,0.00,,,0.00,open2300 v1.10,2013-08-09 00:36:00,
2013-08-08 18:06:00,65.3,54.0,29.84,North,0,0.0,-999.0,67,0.00,,,0.00,open2300 v1.10,2013-08-09 01:06:00,
2013-08-08 18:21:00,64.6,53.8,29.84,North,0,0.0,-999.0,68,0.00,,,0.00,open2300 v1.10,2013-08-09 01:21:00,
2013-08-08 18:36:00,64.0,53.7,29.83,North,0,0.0,-999.0,69,0.00,,,0.00,open2300 v1.10,2013-08-09 01:36:00,
2013-08-08 18:51:00,63.3,53.0,29.83,North,0,0.0,-999.0,69,0.00,,,0.00,open2300 v1.10,2013-08-09 01:51:00,
2013-08-08 19:06:00,63.3,53.4,29.83,North,0,0.0,-999.0,70,0.00,,,0.00,open2300 v1.10,2013-08-09 02:06:00,
2013-08-08 19:21:00,63.0,53.1,29.83,North,0,0.0,-999.0,70,0.00,,,0.00,open2300 v1.10,2013-08-09 02:21:00,
2013-08-08 19:36:00,61.9,52.4,29.83,North,0,0.0,-999.0,71,0.00,,,0.00,open2300 v1.10,2013-08-09 02:36:00,
2013-08-08 19:51:00,61.0,52.0,29.83,North,0,0.0,-999.0,72,0.00,,,0.00,open2300 v1.10,2013-08-09 02:51:00,
2013-08-08 20:06:00,60.1,51.8,29.83,North,0,0.0,-999.0,74,0.00,,,0.00,open2300 v1.10,2013-08-09 03:06:00,
2013-08-08 20:21:00,59.4,51.4,29.83,North,0,0.0,-999.0,75,0.00,,,0.00,open2300 v1.10,2013-08-09 03:21:00,
2013-08-08 20:36:00,58.8,51.3,29.84,North,0,0.0,-999.0,76,0.00,,,0.00,open2300 v1.10,2013-08-09 03:36:00,
2013-08-08 20:51:00,58.6,51.4,29.84,North,0,0.0,-999.0,77,0.00,,,0.00,open2300 v1.10,2013-08-09 03:51:00,
2013-08-08 21:06:00,58.5,51.6,29.84,North,0,0.0,-999.0,78,0.00,,,0.00,open2300 v1.10,2013-08-09 04:06:00,
2013-08-08 21:21:00,58.3,51.8,29.86,North,0,0.0,-999.0,79,0.00,,,0.00,open2300 v1.10,2013-08-09 04:21:00,
2013-08-08 21:36:00,58.1,51.6,29.85,North,0,0.0,-999.0,79,0.00,,,0.00,open2300 v1.10,2013-08-09 04:36:00,
2013-08-08 21:51:00,57.7,51.3,29.86,North,0,0.0,-999.0,79,0.00,,,0.00,open2300 v1.10,2013-08-09 04:51:00,
2013-08-08 22:06:00,57.9,51.4,29.86,North,0,0.0,-999.0,79,0.00,,,0.00,open2300 v1.10,2013-08-09 05:06:00,
2013-08-08 22:21:00,57.7,51.6,29.86,North,0,0.0,-999.0,80,0.00,,,0.00,open2300 v1.10,2013-08-09 05:21:00,
2013-08-08 22:36:00,57.6,51.4,29.86,North,0,0.0,-999.0,80,0.00,,,0.00,open2300 v1.10,2013-08-09 05:36:00,
2013-08-08 22:51:00,57.4,51.3,29.85,North,0,0.0,-999.0,80,0.00,,,0.00,open2300 v1.10,2013-08-09 05:51:00,
2013-08-08 23:06:00,57.4,51.3,29.85,North,0,0.0,-999.0,80,0.00,,,0.00,open2300 v1.10,2013-08-09 06:06:00,
2013-08-08 23:21:00,57.4,51.6,29.85,North,0,0.0,-999.0,81,0.00,,,0.00,open2300 v1.10,2013-08-09 06:21:00,
2013-08-08 23:36:00,57.7,51.9,29.85,North,0,0.0,-999.0,81,0.00,,,0.00,open2300 v1.10,2013-08-09 06:36:00,
2013-08-08 23:51:00,57.7,51.9,29.85,North,0,0.0,-999.0,81,0.00,,,0.00,open2300 v1.10,2013-08-09 06:51:00,